Time;durP1;ratioP1;P1;durP2;ratioP2;P2;SDS_P1;SDS_P2;PMS_P1;PMS_P2;Temp;Humidity;BMP_temperature;BMP_pressure;BME280_temperature;BME280_humidity;BME280_pressure;Samples;Min_cycle;Max_cycle;Signal;HPM_P1;HPM_P2
2023/11/21 00:01:05;;;;;;;5.25;3.13;;;;;;;;;;5020832;28;20545;-56
2023/11/21 00:03:31;;;;;;;5.68;3.38;;;;;;;;;;5025060;28;20045;-56
2023/11/21 00:05:56;;;;;;;5.18;3.58;;;;;;;;;;5023933;28;20296;-56
2023/11/21 00:08:21;;;;;;;6.03;3.63;;;;;;;;;;5025959;28;20060;-58
2023/11/21 00:10:48;;;;;;;5.88;3.90;;;;;;;;;;5023617;28;20091;-56
2023/11/21 00:13:13;;;;;;;5.90;3.25;;;;;;;;;;5003948;28;20030;-57
2023/11/21 00:15:38;;;;;;;5.25;3.30;;;;;;;;;;5031472;28;20034;-56
2023/11/21 00:18:04;;;;;;;5.40;3.60;;;;;;;;;;5003729;28;20057;-56
2023/11/21 00:20:29;;;;;;;6.20;3.63;;;;;;;;;;5024742;28;20296;-56
2023/11/21 00:22:54;;;;;;;5.07;3.20;;;;;;;;;;5025628;28;20997;-56
2023/11/21 00:25:19;;;;;;;4.80;3.50;;;;;;;;;;5027708;28;20284;-58
2023/11/21 00:27:45;;;;;;;4.65;3.50;;;;;;;;;;5024591;28;20295;-56
2023/11/21 00:30:10;;;;;;;4.85;3.35;;;;;;;;;;5019790;28;20102;-56
2023/11/21 00:32:36;;;;;;;5.68;3.67;;;;;;;;;;5005274;28;20041;-56
2023/11/21 00:35:02;;;;;;;4.40;3.40;;;;;;;;;;5025541;28;20515;-57
2023/11/21 00:37:27;;;;;;;4.60;3.55;;;;;;;;;;5021057;28;20049;-55
2023/11/21 00:39:52;;;;;;;5.80;3.60;;;;;;;;;;5020201;28;20029;-56
2023/11/21 00:42:18;;;;;;;4.93;3.40;;;;;;;;;;5010717;28;20173;-56
2023/11/21 00:44:43;;;;;;;5.97;3.60;;;;;;;;;;5025456;28;20037;-57
2023/11/21 00:47:08;;;;;;;4.05;3.22;;;;;;;;;;5030125;28;20272;-56
2023/11/21 00:49:33;;;;;;;5.35;3.33;;;;;;;;;;5032264;28;20178;-58
2023/11/21 00:51:59;;;;;;;4.67;3.50;;;;;;;;;;5031554;28;20025;-56
2023/11/21 00:54:24;;;;;;;4.15;3.13;;;;;;;;;;5033039;28;20283;-56
2023/11/21 00:56:49;;;;;;;5.50;3.25;;;;;;;;;;5038337;28;20049;-56
2023/11/21 00:59:14;;;;;;;5.00;3.40;;;;;;;;;;5030941;28;20509;-57
2023/11/21 01:01:40;;;;;;;5.10;3.50;;;;;;;;;;5032263;28;20128;-57
2023/11/21 01:04:06;;;;;;;6.15;3.75;;;;;;;;;;5032818;28;20437;-57
2023/11/21 01:06:32;;;;;;;5.55;3.63;;;;;;;;;;5010302;28;20427;-57
2023/11/21 01:08:57;;;;;;;4.97;3.28;;;;;;;;;;5029862;28;20056;-57
2023/11/21 01:11:22;;;;;;;5.73;3.60;;;;;;;;;;5027820;28;20033;-57
2023/11/21 01:13:47;;;;;;;4.88;3.25;;;;;;;;;;5031358;28;20275;-57
2023/11/21 01:16:13;;;;;;;6.35;4.05;;;;;;;;;;5026931;28;20034;-57
2023/11/21 01:18:38;;;;;;;5.43;3.85;;;;;;;;;;5027184;28;20129;-57
2023/11/21 01:21:03;;;;;;;6.97;4.15;;;;;;;;;;5027309;28;20036;-56
2023/11/21 01:23:29;;;;;;;5.75;3.60;;;;;;;;;;5031178;28;20044;-57
2023/11/21 01:25:55;;;;;;;5.07;3.65;;;;;;;;;;5032066;28;20038;-56
2023/11/21 01:28:20;;;;;;;6.18;3.40;;;;;;;;;;5020858;28;20064;-56
2023/11/21 01:30:45;;;;;;;5.22;3.65;;;;;;;;;;5008408;28;20042;-57
2023/11/21 01:33:11;;;;;;;5.35;3.58;;;;;;;;;;5036229;28;20048;-57
2023/11/21 01:35:36;;;;;;;5.57;3.42;;;;;;;;;;5034820;28;20045;-56
2023/11/21 01:38:01;;;;;;;5.82;3.65;;;;;;;;;;5026783;28;20053;-56
2023/11/21 01:40:28;;;;;;;6.40;3.70;;;;;;;;;;5026919;28;20045;-57
2023/11/21 01:42:54;;;;;;;5.13;3.40;;;;;;;;;;5033030;28;20034;-58
2023/11/21 01:45:19;;;;;;;6.80;3.47;;;;;;;;;;5026187;28;20041;-56
2023/11/21 01:47:45;;;;;;;5.97;3.80;;;;;;;;;;5026191;28;20048;-57
2023/11/21 01:50:13;;;;;;;5.82;3.42;;;;;;;;;;5042166;28;20038;-56
2023/11/21 01:52:39;;;;;;;5.60;3.83;;;;;;;;;;5033114;28;20038;-57
2023/11/21 01:55:04;;;;;;;5.65;3.75;;;;;;;;;;5035293;28;20064;-56
2023/11/21 01:57:30;;;;;;;5.30;4.07;;;;;;;;;;5026448;28;20491;-57
2023/11/21 01:59:55;;;;;;;5.53;3.60;;;;;;;;;;5026948;28;20022;-57
2023/11/21 02:02:20;;;;;;;5.18;3.78;;;;;;;;;;5007941;28;20407;-56
2023/11/21 02:04:45;;;;;;;5.30;3.57;;;;;;;;;;5025596;28;20025;-56
2023/11/21 02:07:11;;;;;;;6.40;4.03;;;;;;;;;;4992157;28;20264;-57
2023/11/21 02:09:42;;;;;;;5.88;3.83;;;;;;;;;;5026296;28;20256;-57
2023/11/21 02:12:08;;;;;;;4.65;3.53;;;;;;;;;;5032995;28;20399;-56
2023/11/21 02:14:33;;;;;;;5.60;3.70;;;;;;;;;;5037238;28;20072;-56
2023/11/21 02:17:00;;;;;;;4.40;3.67;;;;;;;;;;5025937;28;20072;-56
2023/11/21 02:19:26;;;;;;;5.70;3.83;;;;;;;;;;5025702;28;20053;-55
2023/11/21 02:21:51;;;;;;;5.63;3.63;;;;;;;;;;5027572;28;20133;-55
2023/11/21 02:24:20;;;;;;;5.72;3.60;;;;;;;;;;5025571;28;20025;-56
2023/11/21 02:26:45;;;;;;;5.38;3.60;;;;;;;;;;5025070;28;20040;-55
2023/11/21 02:29:12;;;;;;;5.65;3.88;;;;;;;;;;5025659;28;20017;-56
2023/11/21 02:31:45;;;;;;;6.18;3.95;;;;;;;;;;5007521;28;20483;-56
2023/11/21 02:34:13;;;;;;;5.70;3.80;;;;;;;;;;5023820;28;20092;-56
2023/11/21 02:36:38;;;;;;;6.35;3.75;;;;;;;;;;5006819;28;20427;-56
2023/11/21 02:39:03;;;;;;;5.95;3.90;;;;;;;;;;5024803;28;20037;-56
2023/11/21 02:41:29;;;;;;;4.60;3.58;;;;;;;;;;5027730;28;20030;-55
2023/11/21 02:43:54;;;;;;;5.60;3.70;;;;;;;;;;5033102;28;20038;-56
2023/11/21 02:46:19;;;;;;;5.88;3.92;;;;;;;;;;5025370;28;20817;-55
2023/11/21 02:48:44;;;;;;;5.75;3.85;;;;;;;;;;5025375;28;20033;-56
2023/11/21 02:51:10;;;;;;;4.80;3.58;;;;;;;;;;5001834;28;20550;-55
2023/11/21 02:53:35;;;;;;;6.07;4.00;;;;;;;;;;5013880;28;20037;-55
2023/11/21 02:56:01;;;;;;;5.30;4.00;;;;;;;;;;5016113;28;20043;-58
2023/11/21 02:58:26;;;;;;;5.85;3.78;;;;;;;;;;5000484;28;20303;-56
2023/11/21 03:00:51;;;;;;;6.45;4.35;;;;;;;;;;5015947;28;20041;-56
2023/11/21 03:03:17;;;;;;;5.97;4.03;;;;;;;;;;4990916;28;20040;-58
2023/11/21 03:05:42;;;;;;;5.00;3.60;;;;;;;;;;5025139;28;20551;-56
2023/11/21 03:08:08;;;;;;;5.57;3.88;;;;;;;;;;5025152;28;20121;-55
2023/11/21 03:10:33;;;;;;;5.68;3.95;;;;;;;;;;5024652;28;20068;-56
2023/11/21 03:12:58;;;;;;;5.60;4.00;;;;;;;;;;5024985;28;20041;-56
2023/11/21 03:15:24;;;;;;;5.65;4.10;;;;;;;;;;5024599;28;20048;-55
2023/11/21 03:17:49;;;;;;;5.60;3.95;;;;;;;;;;5024472;28;20551;-56
2023/11/21 03:20:16;;;;;;;7.03;4.43;;;;;;;;;;5003331;28;20120;-56
2023/11/21 03:22:41;;;;;;;5.93;4.18;;;;;;;;;;5023449;28;20287;-56
2023/11/21 03:25:10;;;;;;;6.32;4.07;;;;;;;;;;5027729;28;20029;-56
2023/11/21 03:27:35;;;;;;;5.80;4.20;;;;;;;;;;5024841;28;20029;-55
2023/11/21 03:30:01;;;;;;;6.20;4.13;;;;;;;;;;5024753;28;20128;-55
2023/11/21 03:32:26;;;;;;;5.97;4.07;;;;;;;;;;5030556;28;20550;-56
2023/11/21 03:34:56;;;;;;;5.90;4.15;;;;;;;;;;5006618;28;20490;-55
2023/11/21 03:37:21;;;;;;;5.80;3.95;;;;;;;;;;5006760;28;20045;-55
2023/11/21 03:39:47;;;;;;;6.68;4.15;;;;;;;;;;5004939;28;20491;-55
2023/11/21 03:42:12;;;;;;;6.90;4.13;;;;;;;;;;5024555;28;20034;-55
2023/11/21 03:44:37;;;;;;;7.68;4.50;;;;;;;;;;5027096;28;20532;-55
2023/11/21 03:47:03;;;;;;;5.93;4.13;;;;;;;;;;5024482;28;20049;-55
2023/11/21 03:49:29;;;;;;;5.72;3.95;;;;;;;;;;5027712;28;20622;-55
2023/11/21 03:51:54;;;;;;;6.38;4.53;;;;;;;;;;5034726;28;20045;-56
2023/11/21 03:54:19;;;;;;;6.70;4.55;;;;;;;;;;5024445;28;20534;-56
2023/11/21 03:56:45;;;;;;;6.97;4.47;;;;;;;;;;5025457;28;20053;-56
2023/11/21 03:59:10;;;;;;;7.07;4.25;;;;;;;;;;5024011;28;20804;-57
2023/11/21 04:01:35;;;;;;;4.70;3.85;;;;;;;;;;5024220;28;20065;-56
2023/11/21 04:04:00;;;;;;;5.80;4.10;;;;;;;;;;5024211;28;20103;-56
2023/11/21 04:06:26;;;;;;;6.67;4.67;;;;;;;;;;5023984;28;20117;-56
2023/11/21 04:08:51;;;;;;;6.22;4.05;;;;;;;;;;5024191;28;20284;-56
2023/11/21 04:11:16;;;;;;;6.68;4.38;;;;;;;;;;5006469;28;20470;-56
2023/11/21 04:13:42;;;;;;;7.30;4.65;;;;;;;;;;5024133;28;20121;-56
2023/11/21 04:16:07;;;;;;;6.55;4.15;;;;;;;;;;5029624;28;20079;-57
2023/11/21 04:18:33;;;;;;;5.70;4.38;;;;;;;;;;5007593;28;20057;-56
2023/11/21 04:20:58;;;;;;;6.78;4.82;;;;;;;;;;5006361;28;20080;-56
2023/11/21 04:23:24;;;;;;;7.20;4.70;;;;;;;;;;5024054;28;20534;-56
2023/11/21 04:25:49;;;;;;;5.97;4.30;;;;;;;;;;5024008;28;20288;-56
2023/11/21 04:28:14;;;;;;;5.90;4.30;;;;;;;;;;5023598;28;20030;-57
2023/11/21 04:30:40;;;;;;;5.80;4.50;;;;;;;;;;5023845;28;20025;-56
2023/11/21 04:33:06;;;;;;;6.30;4.65;;;;;;;;;;5023652;28;20440;-56
2023/11/21 04:35:31;;;;;;;7.35;5.00;;;;;;;;;;5023904;28;20078;-56
2023/11/21 04:37:57;;;;;;;5.60;4.23;;;;;;;;;;5022729;28;20057;-56
2023/11/21 04:40:22;;;;;;;6.60;4.50;;;;;;;;;;5003257;28;20277;-56
2023/11/21 04:42:48;;;;;;;5.75;4.25;;;;;;;;;;5023233;28;20491;-56
2023/11/21 04:45:13;;;;;;;6.18;4.55;;;;;;;;;;5023924;28;20056;-55
2023/11/21 04:47:38;;;;;;;5.68;4.22;;;;;;;;;;5027286;28;20107;-56
2023/11/21 04:50:04;;;;;;;7.00;4.63;;;;;;;;;;5036806;28;20527;-55
2023/11/21 04:52:29;;;;;;;6.90;4.57;;;;;;;;;;5040724;28;20102;-56
2023/11/21 04:54:56;;;;;;;6.85;4.60;;;;;;;;;;5027568;28;20034;-56
2023/11/21 04:57:21;;;;;;;6.65;4.55;;;;;;;;;;5034249;28;20041;-55
2023/11/21 04:59:47;;;;;;;6.30;4.47;;;;;;;;;;5027165;28;20056;-56
2023/11/21 05:02:12;;;;;;;7.07;4.80;;;;;;;;;;5039885;28;20618;-56
2023/11/21 05:04:38;;;;;;;6.30;4.38;;;;;;;;;;5027228;28;20040;-55
2023/11/21 05:07:04;;;;;;;7.83;4.77;;;;;;;;;;5027271;28;20120;-55
2023/11/21 05:09:32;;;;;;;7.07;4.90;;;;;;;;;;5008403;28;20288;-56
2023/11/21 05:11:57;;;;;;;7.47;4.63;;;;;;;;;;5029870;28;20037;-56
2023/11/21 05:14:22;;;;;;;7.38;4.78;;;;;;;;;;5027054;28;20569;-56
2023/11/21 05:16:48;;;;;;;5.70;4.47;;;;;;;;;;5023082;28;20049;-56
2023/11/21 05:19:13;;;;;;;7.28;4.95;;;;;;;;;;5023057;28;20091;-56
2023/11/21 05:21:38;;;;;;;6.10;4.47;;;;;;;;;;5024480;28;20041;-56
2023/11/21 05:24:05;;;;;;;6.88;4.97;;;;;;;;;;5025506;28;20872;-56
2023/11/21 05:26:30;;;;;;;7.28;4.75;;;;;;;;;;5026380;28;20083;-56
2023/11/21 05:28:55;;;;;;;6.95;5.07;;;;;;;;;;5025100;28;20055;-56
2023/11/21 05:31:21;;;;;;;8.35;5.15;;;;;;;;;;5025011;28;20137;-56
2023/11/21 05:33:46;;;;;;;6.80;5.00;;;;;;;;;;5025276;28;20512;-55
2023/11/21 05:36:12;;;;;;;6.68;4.93;;;;;;;;;;5023729;28;20048;-56
2023/11/21 05:38:37;;;;;;;6.43;4.73;;;;;;;;;;5022665;28;20464;-56
2023/11/21 05:41:03;;;;;;;6.60;4.85;;;;;;;;;;5024552;28;20268;-56
2023/11/21 05:43:30;;;;;;;6.20;4.70;;;;;;;;;;5021809;28;20045;-56
2023/11/21 05:45:56;;;;;;;6.45;4.65;;;;;;;;;;5022561;28;20038;-56
2023/11/21 05:48:21;;;;;;;6.95;5.07;;;;;;;;;;5020572;28;20041;-56
2023/11/21 05:50:48;;;;;;;6.95;5.03;;;;;;;;;;5021823;28;20713;-57
2023/11/21 05:53:15;;;;;;;6.15;4.90;;;;;;;;;;5020914;28;20155;-56
2023/11/21 05:55:41;;;;;;;6.75;4.80;;;;;;;;;;5019576;28;20025;-56
2023/11/21 05:58:07;;;;;;;5.85;4.47;;;;;;;;;;5024099;28;20049;-57
2023/11/21 06:00:33;;;;;;;6.72;5.22;;;;;;;;;;5023666;28;20068;-56
2023/11/21 06:02:58;;;;;;;7.05;5.15;;;;;;;;;;5018097;28;20041;-57
2023/11/21 06:05:24;;;;;;;6.50;4.75;;;;;;;;;;5025340;28;20036;-56
2023/11/21 06:07:49;;;;;;;6.40;4.63;;;;;;;;;;5018018;28;20038;-57
2023/11/21 06:10:17;;;;;;;7.70;5.38;;;;;;;;;;5023542;28;20480;-57
2023/11/21 06:12:43;;;;;;;6.45;4.65;;;;;;;;;;5023124;28;20037;-57
2023/11/21 06:15:08;;;;;;;6.00;4.32;;;;;;;;;;5023336;28;20481;-56
2023/11/21 06:17:37;;;;;;;7.00;4.90;;;;;;;;;;5025384;28;20048;-56
2023/11/21 06:20:09;;;;;;;7.05;5.03;;;;;;;;;;5023007;28;20037;-55
2023/11/21 06:22:37;;;;;;;6.72;4.38;;;;;;;;;;5008117;28;20148;-56
2023/11/21 06:25:04;;;;;;;7.05;5.07;;;;;;;;;;5013964;28;20033;-55
2023/11/21 06:27:29;;;;;;;8.88;5.05;;;;;;;;;;5010221;28;20038;-55
2023/11/21 06:29:55;;;;;;;7.00;5.35;;;;;;;;;;5014622;28;20045;-55
2023/11/21 06:32:22;;;;;;;7.60;4.90;;;;;;;;;;5014118;28;20056;-56
2023/11/21 06:34:47;;;;;;;6.68;4.85;;;;;;;;;;5012117;28;20320;-55
2023/11/21 06:37:13;;;;;;;6.72;5.15;;;;;;;;;;5017014;28;20464;-55
2023/11/21 06:39:38;;;;;;;8.50;5.10;;;;;;;;;;4994093;28;20044;-56
2023/11/21 06:42:04;;;;;;;6.40;4.80;;;;;;;;;;5017975;28;20124;-55
2023/11/21 06:44:29;;;;;;;7.00;4.80;;;;;;;;;;5012320;28;20311;-56
2023/11/21 06:46:54;;;;;;;5.95;4.90;;;;;;;;;;5019570;28;20566;-55
2023/11/21 06:49:20;;;;;;;8.40;5.07;;;;;;;;;;5012757;28;20049;-55
2023/11/21 06:51:45;;;;;;;7.13;5.10;;;;;;;;;;5013531;28;20499;-56
2023/11/21 06:54:10;;;;;;;7.63;4.80;;;;;;;;;;5014215;28;20030;-55
2023/11/21 06:56:36;;;;;;;5.93;4.60;;;;;;;;;;5013042;28;20107;-56
2023/11/21 06:59:01;;;;;;;7.00;4.90;;;;;;;;;;5009826;28;20864;-55
2023/11/21 07:01:26;;;;;;;7.05;4.90;;;;;;;;;;5011757;28;20311;-55
2023/11/21 07:03:52;;;;;;;8.68;4.70;;;;;;;;;;5014788;28;20041;-55
2023/11/21 07:06:17;;;;;;;6.45;4.88;;;;;;;;;;5016216;28;20491;-55
2023/11/21 07:08:42;;;;;;;6.60;4.70;;;;;;;;;;5013793;28;20040;-56
2023/11/21 07:11:07;;;;;;;6.00;4.40;;;;;;;;;;5010608;28;20725;-57
2023/11/21 07:13:33;;;;;;;7.15;4.88;;;;;;;;;;4993491;28;20193;-57
2023/11/21 07:15:59;;;;;;;6.15;4.70;;;;;;;;;;5010888;28;20056;-57
2023/11/21 07:18:24;;;;;;;6.82;4.32;;;;;;;;;;5009626;28;20617;-57
2023/11/21 07:20:49;;;;;;;11.32;5.05;;;;;;;;;;5007845;28;20042;-57
2023/11/21 07:23:15;;;;;;;6.47;4.65;;;;;;;;;;5011972;28;20123;-56
2023/11/21 07:25:41;;;;;;;6.45;4.57;;;;;;;;;;5015417;28;20532;-56
2023/11/21 07:28:06;;;;;;;7.00;4.65;;;;;;;;;;5013922;28;20440;-56
2023/11/21 07:30:32;;;;;;;6.53;4.80;;;;;;;;;;5011252;28;20030;-57
2023/11/21 07:32:58;;;;;;;8.95;5.18;;;;;;;;;;5008268;28;20060;-56
2023/11/21 07:35:23;;;;;;;7.32;4.57;;;;;;;;;;5010061;28;20102;-56
2023/11/21 07:37:48;;;;;;;5.90;4.40;;;;;;;;;;5013051;28;20575;-56
2023/11/21 07:40:14;;;;;;;7.00;4.30;;;;;;;;;;5015615;28;20362;-56
2023/11/21 07:42:39;;;;;;;8.73;4.00;;;;;;;;;;5014026;28;20104;-56
2023/11/21 07:45:06;;;;;;;8.00;4.35;;;;;;;;;;5014994;28;20037;-55
2023/11/21 07:47:34;;;;;;;6.45;4.63;;;;;;;;;;5008473;28;20029;-55
2023/11/21 07:49:59;;;;;;;9.05;5.00;;;;;;;;;;5012018;28;20025;-56
2023/11/21 07:52:24;;;;;;;6.55;4.40;;;;;;;;;;5014009;28;20033;-56
2023/11/21 07:54:50;;;;;;;8.38;4.80;;;;;;;;;;5012637;28;20025;-55
2023/11/21 07:57:16;;;;;;;6.15;4.60;;;;;;;;;;5011731;28;20547;-55
2023/11/21 07:59:41;;;;;;;5.43;4.28;;;;;;;;;;5009775;28;20054;-55
2023/11/21 08:02:07;;;;;;;6.53;4.43;;;;;;;;;;5008615;28;20531;-55
2023/11/21 08:04:32;;;;;;;7.03;4.53;;;;;;;;;;5011157;28;20119;-56
2023/11/21 08:06:57;;;;;;;5.93;4.32;;;;;;;;;;5009637;28;20065;-54
2023/11/21 08:09:23;;;;;;;6.30;4.70;;;;;;;;;;5011172;28;20034;-54
2023/11/21 08:11:49;;;;;;;5.70;4.25;;;;;;;;;;5010000;28;20471;-55
2023/11/21 08:14:15;;;;;;;6.35;4.50;;;;;;;;;;5010850;28;20034;-55
2023/11/21 08:16:40;;;;;;;6.30;4.20;;;;;;;;;;5013073;28;20047;-56
2023/11/21 08:19:06;;;;;;;5.80;4.15;;;;;;;;;;5010371;28;20057;-55
2023/11/21 08:21:31;;;;;;;6.40;4.50;;;;;;;;;;5015377;28;20195;-55
2023/11/21 08:23:56;;;;;;;7.05;4.68;;;;;;;;;;5013933;28;20117;-56
2023/11/21 08:26:22;;;;;;;6.70;4.05;;;;;;;;;;5015223;28;22098;-56
2023/11/21 08:28:48;;;;;;;6.68;4.68;;;;;;;;;;5014185;28;20041;-55
2023/11/21 08:31:13;;;;;;;5.57;4.57;;;;;;;;;;5014304;28;20038;-56
2023/11/21 08:33:38;;;;;;;6.43;4.93;;;;;;;;;;5013235;28;20056;-55
2023/11/21 08:36:11;;;;;;;5.63;4.40;;;;;;;;;;5012506;28;20040;-57
2023/11/21 08:38:37;;;;;;;5.95;4.18;;;;;;;;;;4994745;28;20709;-56
2023/11/21 08:41:04;;;;;;;6.50;4.50;;;;;;;;;;5001766;28;20159;-56
2023/11/21 08:43:30;;;;;;;8.13;4.30;;;;;;;;;;5012899;28;20128;-57
2023/11/21 08:45:56;;;;;;;8.02;4.53;;;;;;;;;;5014160;28;20034;-58
2023/11/21 08:48:21;;;;;;;6.47;4.80;;;;;;;;;;5014950;28;20479;-57
2023/11/21 08:50:46;;;;;;;5.93;4.50;;;;;;;;;;5013012;28;20014;-57
2023/11/21 08:53:11;;;;;;;5.97;4.40;;;;;;;;;;5013747;28;20030;-57
2023/11/21 08:55:37;;;;;;;7.57;4.82;;;;;;;;;;5013097;28;20280;-57
2023/11/21 08:58:04;;;;;;;6.47;4.63;;;;;;;;;;5013913;28;20120;-57
2023/11/21 09:00:30;;;;;;;7.32;4.45;;;;;;;;;;5011126;28;20030;-57
2023/11/21 09:02:55;;;;;;;7.18;4.68;;;;;;;;;;5018139;28;20029;-57
2023/11/21 09:05:21;;;;;;;6.18;4.57;;;;;;;;;;5015428;28;20018;-57
2023/11/21 09:07:48;;;;;;;7.13;4.53;;;;;;;;;;5025511;28;20503;-57
2023/11/21 09:10:14;;;;;;;7.75;5.00;;;;;;;;;;5008310;28;20036;-56
2023/11/21 09:12:40;;;;;;;7.90;5.00;;;;;;;;;;5026211;28;20021;-57
2023/11/21 09:15:05;;;;;;;6.00;4.40;;;;;;;;;;5025386;28;20028;-58
2023/11/21 09:17:31;;;;;;;6.55;4.53;;;;;;;;;;5025380;28;20117;-57
2023/11/21 09:19:57;;;;;;;7.28;4.97;;;;;;;;;;5007162;28;20108;-55
2023/11/21 09:22:24;;;;;;;6.78;4.60;;;;;;;;;;5025462;28;20471;-56
2023/11/21 09:24:50;;;;;;;6.57;4.90;;;;;;;;;;5025023;28;20479;-56
2023/11/21 09:27:17;;;;;;;6.38;4.43;;;;;;;;;;5025670;28;20100;-56
2023/11/21 09:29:42;;;;;;;6.80;4.75;;;;;;;;;;5025883;28;20044;-56
2023/11/21 09:32:08;;;;;;;6.72;4.38;;;;;;;;;;5006363;28;20031;-56
2023/11/21 09:34:38;;;;;;;6.45;4.40;;;;;;;;;;5025474;28;20029;-56
2023/11/21 09:37:07;;;;;;;5.93;4.35;;;;;;;;;;5030863;28;20049;-56
2023/11/21 09:39:34;;;;;;;7.05;4.45;;;;;;;;;;5024967;28;20523;-56
2023/11/21 09:42:10;;;;;;;6.45;4.65;;;;;;;;;;5025176;28;20571;-56
2023/11/21 09:44:36;;;;;;;6.22;4.50;;;;;;;;;;5024939;28;20033;-55
2023/11/21 09:47:02;;;;;;;5.82;4.40;;;;;;;;;;5028312;28;20033;-55
2023/11/21 09:49:27;;;;;;;6.72;4.90;;;;;;;;;;5009802;28;20569;-55
2023/11/21 09:51:53;;;;;;;8.23;4.97;;;;;;;;;;5032281;28;20116;-55
2023/11/21 09:54:21;;;;;;;6.07;4.18;;;;;;;;;;5035640;28;20284;-55
2023/11/21 09:56:46;;;;;;;6.35;4.68;;;;;;;;;;5018999;28;20108;-55
2023/11/21 09:59:13;;;;;;;7.20;4.45;;;;;;;;;;4990456;28;20041;-56
2023/11/21 10:01:39;;;;;;;7.03;4.70;;;;;;;;;;5007788;28;20072;-56
2023/11/21 10:04:05;;;;;;;5.90;4.30;;;;;;;;;;5011030;28;20132;-56
2023/11/21 10:06:30;;;;;;;6.70;4.60;;;;;;;;;;5009306;28;20038;-55
2023/11/21 10:08:59;;;;;;;6.20;4.60;;;;;;;;;;5012160;28;20903;-55
2023/11/21 10:11:24;;;;;;;6.55;4.50;;;;;;;;;;5010809;28;20041;-55
2023/11/21 10:13:50;;;;;;;6.47;4.95;;;;;;;;;;5011191;28;20041;-56
2023/11/21 10:16:16;;;;;;;6.90;4.57;;;;;;;;;;5008197;28;20044;-55
2023/11/21 10:18:41;;;;;;;7.07;4.90;;;;;;;;;;4995094;28;20193;-56
2023/11/21 10:21:07;;;;;;;113.22;47.10;;;;;;;;;;5010323;28;20061;-56
2023/11/21 10:23:32;;;;;;;151.13;82.30;;;;;;;;;;5010389;28;20044;-55
2023/11/21 10:25:59;;;;;;;360.50;242.13;;;;;;;;;;4990108;28;20088;-56
2023/11/21 10:28:24;;;;;;;468.98;348.92;;;;;;;;;;5012048;28;20090;-57
2023/11/21 10:30:49;;;;;;;450.98;329.20;;;;;;;;;;5009795;28;20494;-56
2023/11/21 10:33:15;;;;;;;406.98;293.65;;;;;;;;;;5010630;28;20123;-56
2023/11/21 10:35:46;;;;;;;413.73;300.85;;;;;;;;;;5010442;28;20567;-56
2023/11/21 10:38:13;;;;;;;384.48;276.73;;;;;;;;;;5010743;28;20510;-57
2023/11/21 10:40:42;;;;;;;127.47;84.18;;;;;;;;;;5009884;28;20030;-55
2023/11/21 10:43:11;;;;;;;118.10;80.55;;;;;;;;;;5006996;28;20056;-57
2023/11/21 10:45:37;;;;;;;163.23;109.18;;;;;;;;;;5010432;28;20124;-56
2023/11/21 10:48:04;;;;;;;245.30;159.70;;;;;;;;;;5011194;28;20042;-56
2023/11/21 10:50:30;;;;;;;243.07;159.15;;;;;;;;;;4998619;28;20038;-54
2023/11/21 10:52:55;;;;;;;246.03;163.10;;;;;;;;;;5008864;28;20103;-55
2023/11/21 10:55:24;;;;;;;230.35;151.63;;;;;;;;;;5010533;28;20310;-54
2023/11/21 10:57:51;;;;;;;157.60;103.00;;;;;;;;;;5010201;28;20139;-56
2023/11/21 11:00:19;;;;;;;135.23;89.10;;;;;;;;;;5009974;28;20045;-57
2023/11/21 11:02:44;;;;;;;114.03;76.82;;;;;;;;;;5009867;28;20669;-57
2023/11/21 11:05:11;;;;;;;91.57;59.17;;;;;;;;;;5009768;28;20096;-57
2023/11/21 11:07:36;;;;;;;72.50;48.20;;;;;;;;;;5010179;28;20044;-55
2023/11/21 11:10:03;;;;;;;59.70;40.28;;;;;;;;;;4992515;28;20127;-54
2023/11/21 11:12:29;;;;;;;67.68;44.55;;;;;;;;;;5008960;28;20129;-55
2023/11/21 11:14:54;;;;;;;70.22;45.72;;;;;;;;;;5009012;28;20528;-56
2023/11/21 11:17:22;;;;;;;83.07;55.05;;;;;;;;;;5008619;28;20056;-55
2023/11/21 11:19:48;;;;;;;93.72;60.22;;;;;;;;;;5010321;28;20140;-55
2023/11/21 11:22:25;;;;;;;90.40;58.28;;;;;;;;;;5010523;28;21824;-55
2023/11/21 11:24:50;;;;;;;93.65;64.10;;;;;;;;;;5009471;28;20375;-55
2023/11/21 11:27:34;;;;;;;93.13;61.77;;;;;;;;;;5009080;28;20053;-55
2023/11/21 11:30:22;;;;;;;93.75;61.53;;;;;;;;;;5009103;28;20292;-55
2023/11/21 11:32:56;;;;;;;94.13;60.28;;;;;;;;;;5006823;28;20045;-55
2023/11/21 11:35:36;;;;;;;90.65;60.13;;;;;;;;;;5007723;28;20022;-55
2023/11/21 11:38:01;;;;;;;86.65;57.80;;;;;;;;;;5009620;28;20057;-55
2023/11/21 11:40:40;;;;;;;86.33;58.67;;;;;;;;;;4992790;28;20053;-55
2023/11/21 11:43:07;;;;;;;91.25;58.92;;;;;;;;;;5009488;28;20292;-56
2023/11/21 11:45:33;;;;;;;87.40;56.97;;;;;;;;;;4991763;28;21164;-56
2023/11/21 11:47:59;;;;;;;88.60;59.03;;;;;;;;;;4996695;28;22093;-56
2023/11/21 11:50:25;;;;;;;86.85;58.95;;;;;;;;;;5008724;28;20038;-57
2023/11/21 11:52:52;;;;;;;47.38;30.90;;;;;;;;;;5009636;28;20025;-54
2023/11/21 11:55:18;;;;;;;51.80;35.33;;;;;;;;;;5007329;28;20497;-56
2023/11/21 11:57:43;;;;;;;61.15;41.80;;;;;;;;;;5009273;28;20048;-54
2023/11/21 12:00:10;;;;;;;41.05;26.80;;;;;;;;;;4990415;28;20105;-54
2023/11/21 12:02:37;;;;;;;48.67;31.60;;;;;;;;;;4991279;28;20499;-55
2023/11/21 12:05:06;;;;;;;45.70;31.00;;;;;;;;;;5009150;28;20041;-55
2023/11/21 12:07:52;;;;;;;48.95;31.98;;;;;;;;;;5009308;28;20116;-55
2023/11/21 12:10:18;;;;;;;36.40;22.75;;;;;;;;;;4991228;28;20491;-54
2023/11/21 12:12:49;;;;;;;36.90;24.48;;;;;;;;;;5007964;28;20045;-56
2023/11/21 12:15:15;;;;;;;42.08;28.60;;;;;;;;;;5011100;28;20239;-54
2023/11/21 12:17:41;;;;;;;45.90;28.05;;;;;;;;;;5012946;28;20121;-53
2023/11/21 12:20:14;;;;;;;41.13;27.55;;;;;;;;;;5010317;28;20037;-55
2023/11/21 12:22:41;;;;;;;42.15;27.45;;;;;;;;;;5009740;28;20092;-55
2023/11/21 12:25:06;;;;;;;40.85;28.58;;;;;;;;;;5008689;28;20048;-55
2023/11/21 12:27:32;;;;;;;39.22;27.83;;;;;;;;;;5010870;28;20038;-56
2023/11/21 12:29:58;;;;;;;39.75;27.15;;;;;;;;;;5007214;28;20040;-55
2023/11/21 12:32:25;;;;;;;42.83;27.77;;;;;;;;;;5007120;28;20107;-55
2023/11/21 12:34:50;;;;;;;39.78;26.80;;;;;;;;;;5004991;28;20067;-55
2023/11/21 12:37:16;;;;;;;39.15;27.30;;;;;;;;;;4992747;28;20472;-55
2023/11/21 12:39:42;;;;;;;37.20;25.10;;;;;;;;;;5008797;28;20045;-56
2023/11/21 12:42:07;;;;;;;41.33;26.98;;;;;;;;;;5009760;28;20084;-56
2023/11/21 12:44:32;;;;;;;34.58;25.15;;;;;;;;;;5010507;28;20056;-56
2023/11/21 12:46:58;;;;;;;37.10;25.55;;;;;;;;;;5009926;28;20121;-56
2023/11/21 12:49:24;;;;;;;36.25;25.02;;;;;;;;;;5009470;28;20136;-55
2023/11/21 12:51:49;;;;;;;35.22;25.05;;;;;;;;;;5010031;28;20489;-57
2023/11/21 12:54:15;;;;;;;36.53;25.60;;;;;;;;;;5009797;28;20060;-55
2023/11/21 12:56:40;;;;;;;35.88;24.85;;;;;;;;;;5007991;28;20133;-56
2023/11/21 12:59:06;;;;;;;32.42;22.73;;;;;;;;;;5006833;28;20533;-56
2023/11/21 13:01:31;;;;;;;35.93;23.70;;;;;;;;;;5010020;28;20096;-56
2023/11/21 13:04:01;;;;;;;33.38;23.60;;;;;;;;;;5007503;28;20300;-55
2023/11/21 13:06:27;;;;;;;33.05;23.70;;;;;;;;;;5008489;28;20527;-56
2023/11/21 13:08:52;;;;;;;33.67;23.35;;;;;;;;;;4992109;28;20068;-57
2023/11/21 13:11:17;;;;;;;30.37;21.70;;;;;;;;;;4996718;28;20036;-57
2023/11/21 13:13:46;;;;;;;30.85;22.45;;;;;;;;;;5024114;28;20288;-55
2023/11/21 13:16:11;;;;;;;31.30;22.15;;;;;;;;;;5023577;28;20033;-56
2023/11/21 13:18:37;;;;;;;30.60;21.30;;;;;;;;;;5031844;28;20783;-56
2023/11/21 13:21:13;;;;;;;32.63;22.50;;;;;;;;;;5024810;28;20061;-55
2023/11/21 13:23:40;;;;;;;30.38;22.17;;;;;;;;;;5003600;28;20045;-55
2023/11/21 13:26:06;;;;;;;29.08;20.83;;;;;;;;;;5036799;28;20055;-55
2023/11/21 13:28:32;;;;;;;28.60;21.13;;;;;;;;;;5025360;28;20464;-57
2023/11/21 13:31:02;;;;;;;22.73;16.20;;;;;;;;;;5030877;28;20033;-53
2023/11/21 13:33:28;;;;;;;;;;;;;;;;;;5030555;28;20163;-55
2023/11/21 13:35:53;;;;;;;28.13;17.80;;;;;;;;;;5036758;28;20000;-55
2023/11/21 13:38:22;;;;;;;24.92;18.08;;;;;;;;;;5034566;28;20528;-57
2023/11/21 13:40:49;;;;;;;26.05;18.30;;;;;;;;;;5037405;28;20037;-55
2023/11/21 13:43:21;;;;;;;24.83;17.95;;;;;;;;;;5025468;28;20128;-55
2023/11/21 13:45:46;;;;;;;26.60;17.52;;;;;;;;;;5025256;28;20052;-56
2023/11/21 13:48:15;;;;;;;29.25;18.50;;;;;;;;;;5025390;28;20410;-54
2023/11/21 13:50:48;;;;;;;25.98;17.23;;;;;;;;;;5024415;28;20028;-55
2023/11/21 13:53:17;;;;;;;23.98;17.23;;;;;;;;;;5009659;28;20088;-56
2023/11/21 13:55:45;;;;;;;24.08;17.52;;;;;;;;;;5008178;28;20041;-55
2023/11/21 13:58:17;;;;;;;23.20;16.80;;;;;;;;;;5026814;28;20073;-56
2023/11/21 14:00:45;;;;;;;23.50;16.77;;;;;;;;;;5019000;28;20076;-55
2023/11/21 14:03:18;;;;;;;23.17;16.40;;;;;;;;;;5020484;28;20033;-55
2023/11/21 14:05:46;;;;;;;23.20;16.85;;;;;;;;;;5010886;28;20116;-55
2023/11/21 14:08:16;;;;;;;23.50;16.27;;;;;;;;;;5010215;28;20033;-56
2023/11/21 14:10:43;;;;;;;21.75;16.33;;;;;;;;;;5012959;28;20039;-56
2023/11/21 14:13:10;;;;;;;20.85;15.35;;;;;;;;;;5010438;28;20034;-56
2023/11/21 14:15:41;;;;;;;21.10;15.43;;;;;;;;;;5010588;28;20034;-56
2023/11/21 14:18:07;;;;;;;21.98;15.57;;;;;;;;;;5009870;28;20144;-56
2023/11/21 14:20:33;;;;;;;21.63;15.48;;;;;;;;;;4975169;28;20424;-56
2023/11/21 14:22:58;;;;;;;22.25;15.35;;;;;;;;;;5009654;28;20075;-56
2023/11/21 14:25:24;;;;;;;20.60;14.68;;;;;;;;;;5011414;28;20030;-56
2023/11/21 14:27:50;;;;;;;19.50;14.88;;;;;;;;;;5011424;28;20175;-58
2023/11/21 14:30:19;;;;;;;21.23;15.68;;;;;;;;;;5010112;28;20455;-56